Time;durP1;ratioP1;P1;durP2;ratioP2;P2;SDS_P1;SDS_P2;PMS_P1;PMS_P2;Temp;Humidity;BMP_temperature;BMP_pressure;BME280_temperature;BME280_humidity;BME280_pressure;Samples;Min_cycle;Max_cycle;Signal;HPM_P1;HPM_P2
2022/11/03 00:01:46;;;;;;;77.57;39.78;;;;;;;;;;5028935;28;20049;-72
2022/11/03 00:04:15;;;;;;;70.88;39.65;;;;;;;;;;5010250;28;20037;-73
2022/11/03 00:06:42;;;;;;;79.38;39.53;;;;;;;;;;5030681;28;20028;-73
2022/11/03 00:09:12;;;;;;;78.60;39.35;;;;;;;;;;5029959;28;20036;-72
2022/11/03 00:11:39;;;;;;;91.90;42.08;;;;;;;;;;5030793;28;20080;-73
2022/11/03 00:14:08;;;;;;;79.85;39.17;;;;;;;;;;5023481;28;20410;-73
2022/11/03 00:16:34;;;;;;;79.93;40.70;;;;;;;;;;5029967;28;20109;-73
2022/11/03 00:19:00;;;;;;;74.65;38.35;;;;;;;;;;5030421;28;20175;-73
2022/11/03 00:21:26;;;;;;;70.53;38.65;;;;;;;;;;5030246;28;20029;-73
2022/11/03 00:23:53;;;;;;;78.65;41.28;;;;;;;;;;5030282;28;20040;-73
2022/11/03 00:26:27;;;;;;;66.18;39.08;;;;;;;;;;5026358;28;20041;-72
2022/11/03 00:28:56;;;;;;;78.10;40.97;;;;;;;;;;5030550;28;20108;-71
2022/11/03 00:31:23;;;;;;;73.80;39.55;;;;;;;;;;5030053;28;20454;-73
2022/11/03 00:33:49;;;;;;;79.88;40.85;;;;;;;;;;5027535;28;20141;-74
2022/11/03 00:36:24;;;;;;;75.97;40.30;;;;;;;;;;5028613;28;20038;-73
2022/11/03 00:38:50;;;;;;;84.30;41.47;;;;;;;;;;5028276;28;20060;-72
2022/11/03 00:41:19;;;;;;;72.30;37.60;;;;;;;;;;5029467;28;20024;-72
2022/11/03 00:43:48;;;;;;;67.68;36.90;;;;;;;;;;5029764;28;20033;-72
2022/11/03 00:46:15;;;;;;;70.88;38.35;;;;;;;;;;5028390;28;20099;-71
2022/11/03 00:48:41;;;;;;;81.60;39.50;;;;;;;;;;5030147;28;20097;-72
2022/11/03 00:51:10;;;;;;;70.10;35.60;;;;;;;;;;5029270;28;20064;-73
2022/11/03 00:53:40;;;;;;;65.68;36.22;;;;;;;;;;5028928;28;20036;-72
2022/11/03 00:56:09;;;;;;;62.80;37.47;;;;;;;;;;5027947;28;20038;-72
2022/11/03 00:58:35;;;;;;;64.57;37.15;;;;;;;;;;5028009;28;20116;-72
2022/11/03 01:01:07;;;;;;;68.43;38.05;;;;;;;;;;5015016;28;20542;-72
2022/11/03 01:03:35;;;;;;;74.07;39.58;;;;;;;;;;5033492;28;20037;-72
2022/11/03 01:08:49;;;;;;;70.40;38.75;;;;;;;;;;5032648;28;20041;-72
2022/11/03 01:14:02;;;;;;;99.47;39.85;;;;;;;;;;5025625;28;20030;-72
2022/11/03 01:16:28;;;;;;;82.78;39.70;;;;;;;;;;5031764;28;20024;-72
2022/11/03 01:18:54;;;;;;;78.38;37.28;;;;;;;;;;5030263;28;20026;-72
2022/11/03 01:21:20;;;;;;;75.25;36.47;;;;;;;;;;5031862;28;20108;-73
2022/11/03 01:23:46;;;;;;;62.13;34.28;;;;;;;;;;5032824;28;20044;-73
2022/11/03 01:26:13;;;;;;;65.38;36.22;;;;;;;;;;5031460;28;20045;-72
2022/11/03 01:28:42;;;;;;;61.08;33.80;;;;;;;;;;5032917;28;20399;-71
2022/11/03 01:31:12;;;;;;;65.03;34.95;;;;;;;;;;5032922;28;20044;-74
2022/11/03 01:33:38;;;;;;;71.95;36.55;;;;;;;;;;5033253;28;20479;-71
2022/11/03 01:36:04;;;;;;;68.03;37.40;;;;;;;;;;5031990;28;20453;-72
2022/11/03 01:38:32;;;;;;;62.28;35.72;;;;;;;;;;5033472;28;20029;-73
2022/11/03 01:40:58;;;;;;;61.65;37.13;;;;;;;;;;5026189;28;20530;-72
2022/11/03 01:43:26;;;;;;;67.97;37.75;;;;;;;;;;5015682;28;20037;-72
2022/11/03 01:46:08;;;;;;;63.05;34.22;;;;;;;;;;5032781;28;20048;-72
2022/11/03 01:48:39;;;;;;;65.68;35.95;;;;;;;;;;5033305;28;20029;-73
2022/11/03 01:51:06;;;;;;;62.85;35.20;;;;;;;;;;5028958;28;20045;-72
2022/11/03 01:53:34;;;;;;;67.78;36.42;;;;;;;;;;5007461;28;20085;-72
2022/11/03 01:56:01;;;;;;;66.15;36.05;;;;;;;;;;5031285;28;20451;-72
2022/11/03 01:58:31;;;;;;;71.03;36.50;;;;;;;;;;5030809;28;20107;-73
2022/11/03 02:00:58;;;;;;;75.05;39.58;;;;;;;;;;5031986;28;20044;-71
2022/11/03 02:03:27;;;;;;;73.22;39.85;;;;;;;;;;5020769;28;20034;-73
2022/11/03 02:05:54;;;;;;;68.25;38.53;;;;;;;;;;5031883;28;20364;-72
2022/11/03 02:08:21;;;;;;;66.57;38.45;;;;;;;;;;5032168;28;20087;-73
2022/11/03 02:10:49;;;;;;;71.53;37.17;;;;;;;;;;5030971;28;20037;-72
2022/11/03 02:13:26;;;;;;;63.72;38.05;;;;;;;;;;5032498;28;20040;-73
2022/11/03 02:15:56;;;;;;;62.15;35.53;;;;;;;;;;5032675;28;20179;-72
2022/11/03 02:18:26;;;;;;;59.45;35.03;;;;;;;;;;5032555;28;20486;-72
2022/11/03 02:21:08;;;;;;;64.55;37.13;;;;;;;;;;5032684;28;20063;-72
2022/11/03 02:24:15;;;;;;;66.95;35.92;;;;;;;;;;5031830;28;20033;-73
2022/11/03 02:26:46;;;;;;;61.75;35.92;;;;;;;;;;5030526;28;20054;-72
2022/11/03 02:29:12;;;;;;;61.35;33.55;;;;;;;;;;5031161;28;20032;-72
2022/11/03 02:31:48;;;;;;;68.65;36.38;;;;;;;;;;5031795;28;20510;-72
2022/11/03 02:34:30;;;;;;;63.33;36.53;;;;;;;;;;5013305;28;20030;-72
2022/11/03 02:37:11;;;;;;;66.40;37.40;;;;;;;;;;5029323;28;20440;-72
2022/11/03 02:39:44;;;;;;;75.13;38.95;;;;;;;;;;5029963;28;20026;-72
2022/11/03 02:42:12;;;;;;;67.70;38.78;;;;;;;;;;5031756;28;20482;-72
2022/11/03 02:44:40;;;;;;;71.22;38.17;;;;;;;;;;5031787;28;20033;-72
2022/11/03 02:47:09;;;;;;;67.20;37.28;;;;;;;;;;5030739;28;20041;-72
2022/11/03 02:49:44;;;;;;;65.00;35.88;;;;;;;;;;5031536;28;20033;-72
2022/11/03 02:52:33;;;;;;;71.97;38.10;;;;;;;;;;5028672;28;20530;-72
2022/11/03 02:55:08;;;;;;;73.50;38.25;;;;;;;;;;5024767;28;20033;-74
2022/11/03 02:57:38;;;;;;;60.65;36.13;;;;;;;;;;5032462;28;20037;-72
2022/11/03 03:00:08;;;;;;;71.07;38.50;;;;;;;;;;5027306;28;20099;-73
2022/11/03 03:02:56;;;;;;;73.75;41.47;;;;;;;;;;5031551;28;20029;-73
2022/11/03 03:05:25;;;;;;;71.78;39.40;;;;;;;;;;5029326;28;20041;-72
2022/11/03 03:07:56;;;;;;;87.05;42.22;;;;;;;;;;5024035;28;20032;-72
2022/11/03 03:10:27;;;;;;;91.22;42.25;;;;;;;;;;5030696;28;20037;-72
2022/11/03 03:12:56;;;;;;;79.50;41.75;;;;;;;;;;5013890;28;20120;-72
2022/11/03 03:15:33;;;;;;;81.70;44.65;;;;;;;;;;5031706;28;20443;-72
2022/11/03 03:18:06;;;;;;;71.75;42.83;;;;;;;;;;5031857;28;20037;-73
2022/11/03 03:20:40;;;;;;;76.18;40.92;;;;;;;;;;5031915;28;20570;-72
2022/11/03 03:23:14;;;;;;;81.32;42.80;;;;;;;;;;5031172;28;20049;-72
2022/11/03 03:25:48;;;;;;;75.80;39.25;;;;;;;;;;5032033;28;20119;-73
2022/11/03 03:28:20;;;;;;;73.75;38.13;;;;;;;;;;5032273;28;20048;-72
2022/11/03 03:30:47;;;;;;;67.75;36.63;;;;;;;;;;5031534;28;20057;-72
2022/11/03 03:33:15;;;;;;;58.85;37.20;;;;;;;;;;5030314;28;20125;-72
2022/11/03 03:35:44;;;;;;;70.88;38.55;;;;;;;;;;5031373;28;20025;-73
2022/11/03 03:38:18;;;;;;;74.72;40.33;;;;;;;;;;5031491;28;20072;-72
2022/11/03 03:40:45;;;;;;;;;;;;;;;;;;5032034;28;20091;-72
2022/11/03 03:43:13;;;;;;;86.35;41.17;;;;;;;;;;5031320;28;19967;-72
2022/11/03 03:45:42;;;;;;;79.03;40.15;;;;;;;;;;5031215;28;20040;-73
2022/11/03 03:48:07;;;;;;;77.53;40.97;;;;;;;;;;5029632;28;20053;-72
2022/11/03 03:50:37;;;;;;;74.65;41.75;;;;;;;;;;5031706;28;20375;-73
2022/11/03 03:53:05;;;;;;;77.15;41.40;;;;;;;;;;5031868;28;20486;-73
2022/11/03 03:55:43;;;;;;;79.70;42.05;;;;;;;;;;5027324;28;20036;-72
2022/11/03 03:58:12;;;;;;;78.05;42.55;;;;;;;;;;5029091;28;20045;-72
2022/11/03 04:00:41;;;;;;;84.80;40.72;;;;;;;;;;5030580;28;20017;-72
2022/11/03 04:03:16;;;;;;;77.70;40.63;;;;;;;;;;5030987;28;20048;-72
2022/11/03 04:05:43;;;;;;;83.90;43.10;;;;;;;;;;5030742;28;20033;-72
2022/11/03 04:08:09;;;;;;;78.72;42.60;;;;;;;;;;5030668;28;20058;-72
2022/11/03 04:10:35;;;;;;;83.80;46.17;;;;;;;;;;5030449;28;20087;-72
2022/11/03 04:23:59;;;;;;;79.63;43.22;;;;;;;;;;5029970;28;20506;-72
2022/11/03 04:26:26;;;;;;;81.65;42.72;;;;;;;;;;5030649;28;20115;-73
2022/11/03 04:28:54;;;;;;;77.32;42.15;;;;;;;;;;5030199;28;20175;-73
2022/11/03 04:31:20;;;;;;;82.63;42.55;;;;;;;;;;5030568;28;20078;-72
2022/11/03 04:33:46;;;;;;;76.68;40.75;;;;;;;;;;5030562;28;20421;-72
2022/11/03 04:36:15;;;;;;;80.90;39.80;;;;;;;;;;5034586;28;20044;-72
2022/11/03 04:38:43;;;;;;;75.40;40.40;;;;;;;;;;5034554;28;20379;-72
2022/11/03 04:41:39;;;;;;;70.47;39.05;;;;;;;;;;5034793;28;20426;-72
2022/11/03 04:44:12;;;;;;;69.70;40.13;;;;;;;;;;5029088;28;20041;-73
2022/11/03 04:46:38;;;;;;;67.53;37.08;;;;;;;;;;5034257;28;20037;-72
2022/11/03 04:49:06;;;;;;;73.18;39.28;;;;;;;;;;5033940;28;20026;-72
2022/11/03 04:51:33;;;;;;;66.13;37.00;;;;;;;;;;5033989;28;20092;-72
2022/11/03 04:54:12;;;;;;;78.15;39.42;;;;;;;;;;5033530;28;20063;-73
2022/11/03 04:56:39;;;;;;;76.68;41.88;;;;;;;;;;5034205;28;20360;-72
2022/11/03 04:59:11;;;;;;;86.60;44.28;;;;;;;;;;5033793;28;20025;-73
2022/11/03 05:01:37;;;;;;;77.85;41.33;;;;;;;;;;5033634;28;20030;-72
2022/11/03 05:04:12;;;;;;;78.32;39.65;;;;;;;;;;5034101;28;20083;-73
2022/11/03 05:06:40;;;;;;;67.45;39.85;;;;;;;;;;5034102;28;20421;-73
2022/11/03 05:09:16;;;;;;;76.03;39.90;;;;;;;;;;5034005;28;20025;-72
2022/11/03 05:11:44;;;;;;;77.60;42.28;;;;;;;;;;5033336;28;20048;-73
2022/11/03 05:14:17;;;;;;;82.28;42.22;;;;;;;;;;5033171;28;20017;-72
2022/11/03 05:16:43;;;;;;;72.20;41.13;;;;;;;;;;5031916;28;20037;-72
2022/11/03 05:19:20;;;;;;;76.68;42.95;;;;;;;;;;5033916;28;20025;-73
2022/11/03 05:21:49;;;;;;;82.20;41.20;;;;;;;;;;5033399;28;20556;-73
2022/11/03 05:24:18;;;;;;;80.72;42.83;;;;;;;;;;5033200;28;20621;-73
2022/11/03 05:26:44;;;;;;;79.50;41.97;;;;;;;;;;5033824;28;20034;-73
2022/11/03 05:29:17;;;;;;;82.13;42.78;;;;;;;;;;5033570;28;20041;-72
2022/11/03 05:31:45;;;;;;;96.25;45.15;;;;;;;;;;5033026;28;20094;-72
2022/11/03 05:34:29;;;;;;;97.60;44.03;;;;;;;;;;5032586;28;20065;-73
2022/11/03 05:37:10;;;;;;;79.68;38.92;;;;;;;;;;5015156;28;20408;-73
2022/11/03 05:39:44;;;;;;;79.63;38.58;;;;;;;;;;5015308;28;20060;-73
2022/11/03 05:42:31;;;;;;;62.30;35.92;;;;;;;;;;4998948;28;20053;-73
2022/11/03 05:44:57;;;;;;;84.63;37.63;;;;;;;;;;5012781;28;20427;-72
2022/11/03 05:47:36;;;;;;;67.93;35.40;;;;;;;;;;5011784;28;20033;-71
2022/11/03 05:50:28;;;;;;;60.03;31.52;;;;;;;;;;5020775;28;20136;-73
2022/11/03 05:53:18;;;;;;;62.88;32.20;;;;;;;;;;5032682;28;20113;-73
2022/11/03 05:55:44;;;;;;;55.83;30.80;;;;;;;;;;5032386;28;20048;-73
2022/11/03 05:58:31;;;;;;;56.50;29.65;;;;;;;;;;5023605;28;20045;-73
2022/11/03 06:01:00;;;;;;;70.97;30.90;;;;;;;;;;5011887;28;20370;-72
2022/11/03 06:03:29;;;;;;;50.95;29.45;;;;;;;;;;5012228;28;20037;-72
2022/11/03 06:05:57;;;;;;;55.88;31.42;;;;;;;;;;4995185;28;20034;-72
2022/11/03 06:08:25;;;;;;;63.28;33.20;;;;;;;;;;4991556;28;20512;-72
2022/11/03 06:10:54;;;;;;;56.30;32.15;;;;;;;;;;4992895;28;20472;-72
2022/11/03 06:13:26;;;;;;;49.85;28.55;;;;;;;;;;5011457;28;20029;-72
2022/11/03 06:16:03;;;;;;;52.42;28.38;;;;;;;;;;5012062;28;20033;-73
2022/11/03 06:18:33;;;;;;;52.83;29.45;;;;;;;;;;5002797;28;20041;-72
2022/11/03 06:21:08;;;;;;;49.53;27.88;;;;;;;;;;4992824;28;20049;-73
2022/11/03 06:23:36;;;;;;;50.92;29.52;;;;;;;;;;4996952;28;20137;-71
2022/11/03 06:26:02;;;;;;;62.08;29.08;;;;;;;;;;5020651;28;20524;-74
2022/11/03 06:28:36;;;;;;;52.80;29.95;;;;;;;;;;4992502;28;20042;-75
2022/11/03 06:31:06;;;;;;;56.00;28.77;;;;;;;;;;5003842;28;20049;-73
2022/11/03 06:33:35;;;;;;;57.53;28.15;;;;;;;;;;5002632;28;20038;-73
2022/11/03 06:36:21;;;;;;;49.70;26.90;;;;;;;;;;4994160;28;20084;-74
2022/11/03 06:38:54;;;;;;;52.47;27.30;;;;;;;;;;5002281;28;20030;-73
2022/11/03 06:41:24;;;;;;;;;;;;;;;;;;4995739;28;20022;-73
2022/11/03 06:43:51;;;;;;;51.38;27.80;;;;;;;;;;5012386;28;20259;-74
2022/11/03 06:46:25;;;;;;;49.35;25.75;;;;;;;;;;4993880;28;20050;-73
2022/11/03 06:49:03;;;;;;;57.63;27.63;;;;;;;;;;5002821;28;20439;-73
2022/11/03 06:51:29;;;;;;;58.08;28.55;;;;;;;;;;5011723;28;20501;-73
2022/11/03 06:54:00;;;;;;;46.35;26.63;;;;;;;;;;5012148;28;20033;-74
2022/11/03 06:56:30;;;;;;;43.20;28.50;;;;;;;;;;5012235;28;20037;-75
2022/11/03 06:58:57;;;;;;;42.72;26.90;;;;;;;;;;4994384;28;20053;-75
2022/11/03 07:01:30;;;;;;;50.75;27.65;;;;;;;;;;5006585;28;20022;-73
2022/11/03 07:04:18;;;;;;;54.72;27.40;;;;;;;;;;5003537;28;20160;-74
2022/11/03 07:06:46;;;;;;;54.00;27.67;;;;;;;;;;5011509;28;20060;-75
2022/11/03 07:09:19;;;;;;;59.58;27.48;;;;;;;;;;4994827;28;20056;-74
2022/11/03 07:12:10;;;;;;;57.78;29.10;;;;;;;;;;5011226;28;20041;-73
2022/11/03 07:14:36;;;;;;;51.08;28.00;;;;;;;;;;5008880;28;20542;-73
2022/11/03 07:17:04;;;;;;;44.65;27.95;;;;;;;;;;5010961;28;20134;-78
2022/11/03 07:19:39;;;;;;;51.03;27.67;;;;;;;;;;5011326;28;20030;-74
2022/11/03 07:22:15;;;;;;;59.58;29.45;;;;;;;;;;5008175;28;20061;-75
2022/11/03 07:24:44;;;;;;;47.28;27.35;;;;;;;;;;5008714;28;20115;-74
2022/11/03 07:27:27;;;;;;;57.63;30.27;;;;;;;;;;4991098;28;20057;-74
2022/11/03 07:30:13;;;;;;;55.75;30.58;;;;;;;;;;5010151;28;20057;-74
2022/11/03 07:32:39;;;;;;;54.38;29.17;;;;;;;;;;5004985;28;20418;-75
2022/11/03 07:35:17;;;;;;;55.45;30.42;;;;;;;;;;5003310;28;20022;-74
2022/11/03 07:37:45;;;;;;;60.65;32.25;;;;;;;;;;5007149;28;20176;-74
2022/11/03 07:40:17;;;;;;;54.28;29.98;;;;;;;;;;5018231;28;20025;-73
2022/11/03 07:42:44;;;;;;;55.58;30.92;;;;;;;;;;5010037;28;20515;-73
2022/11/03 07:45:38;;;;;;;59.75;32.80;;;;;;;;;;5013043;28;20026;-73
2022/11/03 07:48:20;;;;;;;48.45;29.45;;;;;;;;;;5022742;28;20144;-74
2022/11/03 07:50:48;;;;;;;57.97;31.03;;;;;;;;;;5031022;28;20029;-74
2022/11/03 07:53:29;;;;;;;58.15;31.08;;;;;;;;;;5018829;28;20475;-74
2022/11/03 07:55:55;;;;;;;56.78;30.05;;;;;;;;;;5021016;28;20104;-76
2022/11/03 07:58:24;;;;;;;60.15;32.60;;;;;;;;;;5025247;28;20065;-74
2022/11/03 08:00:56;;;;;;;58.47;30.63;;;;;;;;;;5027143;28;20040;-77
2022/11/03 08:03:41;;;;;;;43.63;26.70;;;;;;;;;;4993257;28;20403;-75
2022/11/03 08:06:07;;;;;;;44.35;25.90;;;;;;;;;;5025419;28;20088;-75
2022/11/03 08:08:33;;;;;;;42.70;25.48;;;;;;;;;;5027502;28;20029;-77
2022/11/03 08:10:59;;;;;;;41.50;25.67;;;;;;;;;;5027312;28;20033;-76
2022/11/03 08:13:25;;;;;;;37.40;22.27;;;;;;;;;;5014369;28;20029;-78
2022/11/03 08:15:51;;;;;;;34.67;21.48;;;;;;;;;;5026942;28;20038;-74
2022/11/03 08:18:17;;;;;;;42.45;20.95;;;;;;;;;;5008405;28;20355;-74
2022/11/03 08:20:43;;;;;;;40.00;22.23;;;;;;;;;;5031855;28;20513;-74
2022/11/03 08:23:10;;;;;;;47.78;24.27;;;;;;;;;;5029715;28;20041;-72
2022/11/03 08:25:37;;;;;;;39.97;22.60;;;;;;;;;;5032636;28;20137;-75
2022/11/03 08:28:03;;;;;;;37.58;22.10;;;;;;;;;;5032748;28;20037;-75
2022/11/03 08:30:29;;;;;;;38.13;21.38;;;;;;;;;;5032241;28;20033;-75
2022/11/03 08:32:55;;;;;;;38.15;21.00;;;;;;;;;;5032333;28;20425;-74
2022/11/03 08:35:21;;;;;;;37.63;22.65;;;;;;;;;;5018758;28;20126;-76
2022/11/03 08:37:47;;;;;;;36.88;20.63;;;;;;;;;;5034119;28;20030;-76
2022/11/03 08:40:13;;;;;;;34.17;20.33;;;;;;;;;;5015519;28;20045;-75
2022/11/03 08:42:40;;;;;;;38.38;19.80;;;;;;;;;;5025935;28;20105;-74
2022/11/03 08:45:06;;;;;;;35.20;19.88;;;;;;;;;;5032904;28;20029;-75
2022/11/03 08:47:32;;;;;;;34.63;19.92;;;;;;;;;;5025511;28;20022;-73
2022/11/03 08:49:59;;;;;;;37.45;18.45;;;;;;;;;;5027296;28;20041;-74
2022/11/03 08:52:25;;;;;;;34.53;18.60;;;;;;;;;;5032042;28;20111;-75
2022/11/03 08:54:51;;;;;;;36.13;19.45;;;;;;;;;;5029416;28;20128;-74
2022/11/03 08:57:17;;;;;;;37.25;18.38;;;;;;;;;;5030325;28;20026;-74
2022/11/03 08:59:43;;;;;;;38.90;19.25;;;;;;;;;;5031041;28;20533;-73
2022/11/03 09:02:09;;;;;;;32.05;18.13;;;;;;;;;;5030479;28;20375;-73
2022/11/03 09:04:35;;;;;;;30.38;17.70;;;;;;;;;;5030043;28;20045;-71
2022/11/03 09:07:00;;;;;;;32.65;16.42;;;;;;;;;;5030995;28;20112;-71
2022/11/03 09:09:26;;;;;;;35.22;17.60;;;;;;;;;;5031133;28;20454;-72
2022/11/03 09:11:52;;;;;;;34.38;17.52;;;;;;;;;;5032180;28;20029;-72
2022/11/03 09:14:18;;;;;;;41.53;17.65;;;;;;;;;;5032394;28;20077;-72
2022/11/03 09:16:44;;;;;;;31.38;18.27;;;;;;;;;;5026030;28;20570;-73
2022/11/03 09:19:10;;;;;;;30.08;16.52;;;;;;;;;;5028954;28;20033;-72
2022/11/03 09:21:35;;;;;;;39.80;17.63;;;;;;;;;;5032138;28;20030;-72
2022/11/03 09:24:02;;;;;;;29.77;16.73;;;;;;;;;;5031611;28;20026;-73
2022/11/03 09:26:28;;;;;;;33.60;16.58;;;;;;;;;;5033366;28;20069;-71
2022/11/03 09:28:53;;;;;;;26.63;15.57;;;;;;;;;;5025309;28;20035;-72
2022/11/03 09:31:20;;;;;;;30.67;17.55;;;;;;;;;;5030762;28;20037;-73
2022/11/03 09:33:45;;;;;;;29.33;17.08;;;;;;;;;;5031129;28;20045;-72
2022/11/03 09:36:11;;;;;;;31.77;17.13;;;;;;;;;;5031436;28;20562;-72
2022/11/03 09:38:37;;;;;;;38.58;16.30;;;;;;;;;;5014112;28;20017;-71
2022/11/03 09:41:04;;;;;;;29.00;15.45;;;;;;;;;;5031822;28;20093;-72
2022/11/03 09:43:31;;;;;;;31.58;17.65;;;;;;;;;;5030178;28;20022;-71
2022/11/03 09:45:58;;;;;;;27.23;15.27;;;;;;;;;;5030428;28;20030;-72
2022/11/03 09:48:24;;;;;;;36.05;17.27;;;;;;;;;;5031812;28;20067;-72
2022/11/03 09:50:53;;;;;;;31.08;17.08;;;;;;;;;;5014052;28;20138;-72
2022/11/03 09:53:19;;;;;;;33.13;17.65;;;;;;;;;;5031679;28;20032;-72
2022/11/03 09:55:45;;;;;;;30.92;15.98;;;;;;;;;;5031450;28;20083;-73
2022/11/03 09:58:16;;;;;;;37.55;16.98;;;;;;;;;;5032673;28;20104;-74
2022/11/03 10:00:44;;;;;;;31.00;16.88;;;;;;;;;;5032102;28;20487;-72
2022/11/03 10:03:11;;;;;;;34.85;17.25;;;;;;;;;;5031331;28;20060;-72
2022/11/03 10:05:40;;;;;;;32.63;18.40;;;;;;;;;;5032328;28;20037;-71
2022/11/03 10:08:16;;;;;;;32.70;17.80;;;;;;;;;;5031531;28;20032;-72
2022/11/03 10:10:42;;;;;;;37.90;17.15;;;;;;;;;;5031641;28;20037;-71
2022/11/03 10:13:16;;;;;;;32.65;17.70;;;;;;;;;;5031601;28;20034;-72
2022/11/03 10:15:42;;;;;;;28.48;17.23;;;;;;;;;;5031173;28;20021;-73
2022/11/03 10:18:09;;;;;;;34.42;18.55;;;;;;;;;;5031389;28;20029;-73
2022/11/03 10:20:34;;;;;;;43.63;19.08;;;;;;;;;;5030659;28;20053;-72
2022/11/03 10:23:02;;;;;;;53.60;29.55;;;;;;;;;;5031262;28;20033;-71
2022/11/03 10:25:41;;;;;;;50.53;26.80;;;;;;;;;;5031368;28;20140;-71
2022/11/03 10:28:21;;;;;;;41.53;21.27;;;;;;;;;;5031103;28;20097;-73
2022/11/03 10:30:49;;;;;;;35.45;19.73;;;;;;;;;;5030929;28;20030;-72
2022/11/03 10:33:33;;;;;;;35.22;19.45;;;;;;;;;;5022534;28;20475;-72
2022/11/03 10:35:59;;;;;;;;;;;;;;;;;;5031282;28;20060;-73
2022/11/03 10:38:29;;;;;;;36.25;18.95;;;;;;;;;;5027218;28;19917;-74
2022/11/03 10:41:12;;;;;;;30.85;17.67;;;;;;;;;;5024250;28;20060;-73
2022/11/03 10:43:39;;;;;;;30.98;18.67;;;;;;;;;;5029913;28;20033;-73
2022/11/03 10:46:21;;;;;;;33.88;18.92;;;;;;;;;;5029181;28;20060;-72
2022/11/03 10:49:13;;;;;;;43.30;22.15;;;;;;;;;;5025164;28;20033;-76
2022/11/03 10:51:41;;;;;;;40.35;21.55;;;;;;;;;;5027823;28;20065;-74
2022/11/03 10:54:19;;;;;;;36.10;19.58;;;;;;;;;;5025778;28;20044;-73
2022/11/03 10:56:47;;;;;;;32.83;17.40;;;;;;;;;;5030167;28;20067;-72
2022/11/03 10:59:23;;;;;;;37.03;18.95;;;;;;;;;;5027832;28;20032;-72
2022/11/03 11:01:49;;;;;;;33.67;17.45;;;;;;;;;;5030650;28;20482;-73
2022/11/03 11:04:17;;;;;;;32.67;17.63;;;;;;;;;;5030994;28;20029;-73
2022/11/03 11:06:43;;;;;;;31.90;17.60;;;;;;;;;;5024673;28;20092;-72
2022/11/03 11:09:13;;;;;;;33.78;19.15;;;;;;;;;;5026589;28;20017;-73
2022/11/03 11:11:39;;;;;;;29.65;17.60;;;;;;;;;;5030014;28;20487;-73
2022/11/03 11:14:35;;;;;;;30.98;18.40;;;;;;;;;;5030475;28;20075;-73
2022/11/03 11:17:03;;;;;;;34.05;16.15;;;;;;;;;;5025731;28;20034;-73
2022/11/03 11:19:30;;;;;;;27.17;15.57;;;;;;;;;;5013795;28;20153;-74
2022/11/03 11:21:57;;;;;;;31.48;15.35;;;;;;;;;;5016443;28;20395;-75
2022/11/03 11:24:51;;;;;;;32.22;15.90;;;;;;;;;;5015256;28;20042;-74
2022/11/03 11:27:35;;;;;;;28.88;14.73;;;;;;;;;;5017281;28;20414;-74
2022/11/03 11:30:04;;;;;;;25.75;14.05;;;;;;;;;;5018203;28;20435;-73
2022/11/03 11:33:00;;;;;;;26.55;14.68;;;;;;;;;;5027570;28;20033;-73
2022/11/03 11:35:26;;;;;;;29.67;15.10;;;;;;;;;;5024963;28;20503;-73
2022/11/03 11:37:52;;;;;;;25.92;14.77;;;;;;;;;;5007618;28;20032;-73
2022/11/03 11:40:18;;;;;;;33.25;16.17;;;;;;;;;;5022597;28;20030;-76
2022/11/03 11:43:05;;;;;;;26.23;15.13;;;;;;;;;;5017354;28;20034;-75
2022/11/03 11:46:22;;;;;;;30.27;14.95;;;;;;;;;;5027892;28;20132;-73
2022/11/03 11:49:03;;;;;;;28.85;14.32;;;;;;;;;;4994340;28;20038;-73
2022/11/03 11:51:34;;;;;;;24.15;13.30;;;;;;;;;;5026945;28;20495;-73
2022/11/03 11:54:07;;;;;;;25.35;14.65;;;;;;;;;;5025600;28;20037;-72
2022/11/03 11:56:39;;;;;;;;;;;;;;;;;;5012178;28;20184;-73
2022/11/03 11:59:16;;;;;;;31.70;14.38;;;;;;;;;;5029450;28;19916;-72
2022/11/03 12:01:42;;;;;;;26.13;13.60;;;;;;;;;;5011094;28;20505;-72
2022/11/03 12:04:21;;;;;;;28.25;12.90;;;;;;;;;;5029340;28;20025;-73
2022/11/03 12:06:47;;;;;;;28.13;13.50;;;;;;;;;;5028885;28;20436;-73
2022/11/03 12:09:19;;;;;;;25.67;13.05;;;;;;;;;;5022575;28;20032;-73
2022/11/03 12:11:51;;;;;;;23.45;12.25;;;;;;;;;;5022729;28;20124;-72
2022/11/03 12:14:36;;;;;;;32.35;13.32;;;;;;;;;;5022858;28;20044;-73
2022/11/03 12:17:23;;;;;;;26.75;12.80;;;;;;;;;;5030299;28;20044;-73
2022/11/03 12:19:51;;;;;;;25.33;11.60;;;;;;;;;;5030001;28;20446;-73
2022/11/03 12:22:23;;;;;;;23.45;11.27;;;;;;;;;;5045685;28;20029;-73
2022/11/03 12:24:52;;;;;;;25.13;12.32;;;;;;;;;;5031421;28;20049;-73
2022/11/03 12:27:41;;;;;;;29.20;12.77;;;;;;;;;;5050887;28;20037;-73
2022/11/03 12:30:13;;;;;;;28.85;15.35;;;;;;;;;;5051095;28;20490;-73
2022/11/03 12:32:39;;;;;;;31.33;11.38;;;;;;;;;;5051046;28;20033;-74
2022/11/03 12:35:07;;;;;;;23.02;10.63;;;;;;;;;;5032528;28;20440;-75
2022/11/03 12:37:33;;;;;;;24.02;10.63;;;;;;;;;;5034469;28;20510;-74
2022/11/03 12:39:59;;;;;;;25.23;11.35;;;;;;;;;;5051180;28;20040;-73
2022/11/03 12:42:25;;;;;;;30.05;13.07;;;;;;;;;;5050681;28;20513;-74
2022/11/03 12:44:51;;;;;;;30.42;16.50;;;;;;;;;;5050704;28;20029;-74
2022/11/03 12:47:18;;;;;;;30.52;15.27;;;;;;;;;;5050798;28;20044;-73
2022/11/03 12:49:43;;;;;;;28.00;16.27;;;;;;;;;;5050531;28;20025;-74
2022/11/03 12:52:10;;;;;;;37.70;17.38;;;;;;;;;;5050541;28;20048;-75
2022/11/03 12:54:35;;;;;;;35.65;18.15;;;;;;;;;;5050801;28;20087;-75
2022/11/03 12:57:01;;;;;;;40.22;19.55;;;;;;;;;;5054208;28;20032;-72
2022/11/03 12:59:28;;;;;;;31.20;18.58;;;;;;;;;;5054559;28;20021;-73
2022/11/03 13:01:54;;;;;;;44.35;18.50;;;;;;;;;;5036534;28;20161;-72
2022/11/03 13:04:20;;;;;;;29.48;18.75;;;;;;;;;;5037095;28;20124;-73
2022/11/03 13:06:45;;;;;;;31.40;18.75;;;;;;;;;;5036713;28;20116;-72
2022/11/03 13:09:11;;;;;;;30.52;17.25;;;;;;;;;;5055094;28;20453;-72
2022/11/03 13:14:22;;;;;;;40.50;18.77;;;;;;;;;;5055417;28;20140;-74
2022/11/03 13:16:48;;;;;;;32.20;18.80;;;;;;;;;;5055050;28;20021;-71
2022/11/03 13:19:14;;;;;;;31.45;18.20;;;;;;;;;;5036554;28;20037;-72
2022/11/03 13:21:41;;;;;;;35.00;18.40;;;;;;;;;;5053859;28;20071;-72
2022/11/03 13:24:07;;;;;;;29.35;14.57;;;;;;;;;;5054104;28;20029;-72
2022/11/03 13:26:32;;;;;;;28.15;15.82;;;;;;;;;;5054326;28;20033;-72
2022/11/03 13:28:58;;;;;;;32.00;16.95;;;;;;;;;;5048998;28;20040;-72
2022/11/03 13:31:24;;;;;;;33.45;16.00;;;;;;;;;;5053936;28;20455;-72
2022/11/03 13:33:51;;;;;;;33.55;17.33;;;;;;;;;;5053698;28;20044;-72
2022/11/03 13:36:16;;;;;;;32.40;15.82;;;;;;;;;;5053993;28;20104;-71
2022/11/03 13:38:42;;;;;;;31.27;16.73;;;;;;;;;;5045734;28;20041;-71
2022/11/03 13:41:08;;;;;;;30.95;16.02;;;;;;;;;;5034057;28;20100;-73
2022/11/03 13:43:34;;;;;;;28.05;13.95;;;;;;;;;;5034004;28;20041;-72
2022/11/03 13:46:02;;;;;;;29.15;13.88;;;;;;;;;;5033674;28;20383;-73
2022/11/03 13:48:28;;;;;;;28.00;14.10;;;;;;;;;;5033779;28;20509;-73
2022/11/03 13:50:55;;;;;;;25.30;13.55;;;;;;;;;;5000683;28;20123;-73
2022/11/03 13:53:22;;;;;;;29.67;13.38;;;;;;;;;;5033844;28;20041;-72
2022/11/03 13:55:48;;;;;;;20.77;13.05;;;;;;;;;;5033486;28;20475;-72
2022/11/03 13:58:13;;;;;;;31.35;14.07;;;;;;;;;;5033605;28;20104;-72
2022/11/03 14:00:39;;;;;;;27.77;15.52;;;;;;;;;;5033634;28;20482;-72
2022/11/03 14:03:05;;;;;;;32.08;17.85;;;;;;;;;;5032378;28;20375;-71
2022/11/03 14:05:31;;;;;;;39.85;25.45;;;;;;;;;;5031106;28;20117;-72
2022/11/03 14:07:57;;;;;;;37.42;21.70;;;;;;;;;;5032858;28;20128;-71
2022/11/03 14:10:23;;;;;;;40.05;22.77;;;;;;;;;;5033174;28;20030;-71
2022/11/03 14:12:49;;;;;;;35.38;18.92;;;;;;;;;;5031922;28;20041;-72
2022/11/03 14:15:14;;;;;;;32.90;18.75;;;;;;;;;;5033734;28;20036;-71
2022/11/03 14:17:40;;;;;;;35.45;19.00;;;;;;;;;;5032856;28;20446;-72
2022/11/03 14:20:09;;;;;;;33.15;18.90;;;;;;;;;;5033124;28;20036;-71
2022/11/03 14:22:35;;;;;;;43.60;23.63;;;;;;;;;;5035586;28;20033;-72
2022/11/03 14:25:01;;;;;;;40.75;23.60;;;;;;;;;;5051678;28;20479;-72
2022/11/03 14:27:27;;;;;;;33.67;21.13;;;;;;;;;;5035191;28;20040;-72
2022/11/03 14:29:53;;;;;;;37.38;20.60;;;;;;;;;;5053413;28;20415;-72
2022/11/03 14:32:20;;;;;;;35.45;17.60;;;;;;;;;;5053066;28;20037;-72
2022/11/03 14:34:46;;;;;;;29.52;14.23;;;;;;;;;;5053443;28;20399;-72
2022/11/03 14:37:12;;;;;;;20.13;9.88;;;;;;;;;;5053559;28;20102;-71
2022/11/03 14:39:39;;;;;;;23.60;9.00;;;;;;;;;;5052915;28;20025;-71
2022/11/03 14:42:08;;;;;;;18.95;8.88;;;;;;;;;;5034970;28;20031;-72
2022/11/03 14:44:35;;;;;;;21.00;8.43;;;;;;;;;;5053241;28;20056;-71
2022/11/03 14:47:03;;;;;;;20.02;8.10;;;;;;;;;;5052846;28;20033;-72
2022/11/03 14:49:30;;;;;;;17.38;8.30;;;;;;;;;;5053114;28;20486;-72
2022/11/03 14:51:58;;;;;;;27.33;10.60;;;;;;;;;;5052687;28;20041;-72
2022/11/03 14:54:24;;;;;;;32.67;14.90;;;;;;;;;;5052752;28;20051;-72
2022/11/03 14:56:51;;;;;;;30.23;17.30;;;;;;;;;;5052209;28;20029;-72